Watson, IL (62473)

1:57 AM CDT on July 23, 2017 (GMT -0500)
Watson, IL--Olive Street | | Change Station

Elev 558 ft 39.02 °N, 88.57 °W | Updated 2 seconds ago

Mostly Cloudy
Mostly Cloudy
80.8 °F
Feels Like 86 °F
N
2.3
Wind Variable Wind from ESE
Gusts 2.3 mph

Today
High -- | Low -- °F
--% Chance of Precip.
Yesterday
High -- | Low -- °F
Precip. -- in
Pressure 29.79 in
Visibility 10.0 miles
Clouds Scattered Clouds 7000 ft
Scattered Clouds 10000 ft
Scattered Clouds 11000 ft
Heat Index 86 °F
Dew Point 73 °F
Humidity 78%
Rainfall 0.00 in
Snow Depth Not available.
5:47 AM 8:13 PM
Waning Crescent, 0% visible
METAR K1H2 230635Z AUTO 11003KT 10SM SCT070 SCT100 SCT110 27/24 A2979 RMK AO2 LTG DSNT NW THRU E T02700240
Pressure 29.79 in
Visibility 10.0 miles
Clouds Scattered Clouds 7000 ft
Scattered Clouds 10000 ft
Scattered Clouds 11000 ft
Heat Index 86 °F
Dew Point 73 °F
Humidity 78%
Rainfall 0.00 in
Snow Depth Not available.
5:47 AM 8:13 PM
Waning Crescent, 0% visible
METAR K1H2 230635Z AUTO 11003KT 10SM SCT070 SCT100 SCT110 27/24 A2979 RMK AO2 LTG DSNT NW THRU E T02700240

Get Severe Weather Alerts

Thanks for signing up!

Be on the lookout for a verification email in your inbox.

You'll start receiving the daily forecast at 6 AM.

×

10-Day Weather Forecast

Almanac

Astronomy

Jul. 23, 2017 Rise Set
Actual Time
Civil Twilight
Nautical Twilight
Astronomical Twilight
Moon
Length of Visible Light
Length of Day
Tomorrow will be .
, % of the Moon is Illuminated

Today's Extremes

State Highs State Lows

Community

WunderPhotos

Category 6

Welcome to Category 6. This is the collective home for Weather Underground's featured writeups by Dr. Jeff Masters (right), Bob Henson (left), Chris Burt, and other regular contributors.

Nearby

Air Quality

  Air Quality AQ Index Pollutant
Not available.

Snow Depth

Station Depth Elevation

Earthquake Activity

City Distance Mag. Time & Date
Minimum magnitude displayed is 2.5.

Coastal Water Temperatures

Place Temperature

Stations

Nearby Weather Stations

Station Location Temp. Windchill Dew Point Humidity Wind Precip. Elev Updated Type
                   

Watches & Warnings

There are currently no watches in effect.